sensor_id;sensor_type;location;lat;lon;timestamp;P1;durP1;ratioP1;P2;durP2;ratioP2
22967;SDS011;11650;48.106;-1.696;2023-02-08T00:00:16;42.03;;;20.77;;
22967;SDS011;11650;48.106;-1.696;2023-02-08T00:02:42;39.77;;;19.43;;
22967;SDS011;11650;48.106;-1.696;2023-02-08T00:05:07;37.87;;;20.27;;
22967;SDS011;11650;48.106;-1.696;2023-02-08T00:07:33;36.90;;;19.27;;
22967;SDS011;11650;48.106;-1.696;2023-02-08T00:09:59;34.37;;;19.03;;
22967;SDS011;11650;48.106;-1.696;2023-02-08T00:12:24;37.40;;;19.73;;
22967;SDS011;11650;48.106;-1.696;2023-02-08T00:14:52;39.00;;;20.57;;
22967;SDS011;11650;48.106;-1.696;2023-02-08T00:17:17;39.57;;;19.70;;
22967;SDS011;11650;48.106;-1.696;2023-02-08T00:19:43;37.03;;;19.00;;
22967;SDS011;11650;48.106;-1.696;2023-02-08T00:22:08;37.03;;;19.93;;
22967;SDS011;11650;48.106;-1.696;2023-02-08T00:24:34;39.37;;;19.47;;
22967;SDS011;11650;48.106;-1.696;2023-02-08T00:27:00;37.83;;;20.47;;
22967;SDS011;11650;48.106;-1.696;2023-02-08T00:29:25;39.77;;;19.07;;
22967;SDS011;11650;48.106;-1.696;2023-02-08T00:31:51;34.47;;;19.80;;
22967;SDS011;11650;48.106;-1.696;2023-02-08T00:34:16;42.10;;;20.80;;
22967;SDS011;11650;48.106;-1.696;2023-02-08T00:36:42;38.00;;;19.63;;
22967;SDS011;11650;48.106;-1.696;2023-02-08T00:39:08;37.60;;;19.50;;
22967;SDS011;11650;48.106;-1.696;2023-02-08T00:41:33;36.03;;;19.63;;
22967;SDS011;11650;48.106;-1.696;2023-02-08T00:43:59;35.77;;;19.00;;
22967;SDS011;11650;48.106;-1.696;2023-02-08T00:46:25;38.07;;;19.43;;
22967;SDS011;11650;48.106;-1.696;2023-02-08T00:48:50;35.33;;;18.93;;
22967;SDS011;11650;48.106;-1.696;2023-02-08T00:51:16;43.43;;;19.47;;
22967;SDS011;11650;48.106;-1.696;2023-02-08T00:53:42;36.13;;;18.97;;
22967;SDS011;11650;48.106;-1.696;2023-02-08T00:56:10;36.50;;;18.60;;
22967;SDS011;11650;48.106;-1.696;2023-02-08T00:58:37;37.30;;;17.47;;
22967;SDS011;11650;48.106;-1.696;2023-02-08T01:01:03;38.27;;;19.10;;
22967;SDS011;11650;48.106;-1.696;2023-02-08T01:03:31;35.67;;;18.47;;
22967;SDS011;11650;48.106;-1.696;2023-02-08T01:06:02;37.47;;;18.57;;
22967;SDS011;11650;48.106;-1.696;2023-02-08T01:08:29;38.60;;;19.53;;
22967;SDS011;11650;48.106;-1.696;2023-02-08T01:11:02;37.83;;;19.83;;
22967;SDS011;11650;48.106;-1.696;2023-02-08T01:13:29;36.47;;;19.10;;
22967;SDS011;11650;48.106;-1.696;2023-02-08T01:15:55;35.30;;;18.40;;
22967;SDS011;11650;48.106;-1.696;2023-02-08T01:18:49;36.27;;;18.37;;
22967;SDS011;11650;48.106;-1.696;2023-02-08T01:21:17;36.80;;;19.23;;
22967;SDS011;11650;48.106;-1.696;2023-02-08T01:23:44;39.87;;;18.43;;
22967;SDS011;11650;48.106;-1.696;2023-02-08T01:26:11;35.03;;;19.20;;
22967;SDS011;11650;48.106;-1.696;2023-02-08T01:28:38;35.80;;;19.67;;
22967;SDS011;11650;48.106;-1.696;2023-02-08T01:31:05;40.27;;;19.83;;
22967;SDS011;11650;48.106;-1.696;2023-02-08T01:33:35;38.53;;;19.37;;
22967;SDS011;11650;48.106;-1.696;2023-02-08T01:36:01;37.67;;;18.93;;
22967;SDS011;11650;48.106;-1.696;2023-02-08T01:38:27;39.60;;;19.83;;
22967;SDS011;11650;48.106;-1.696;2023-02-08T01:40:53;38.17;;;18.83;;
22967;SDS011;11650;48.106;-1.696;2023-02-08T01:43:20;40.30;;;19.87;;
22967;SDS011;11650;48.106;-1.696;2023-02-08T01:45:50;35.93;;;18.47;;
22967;SDS011;11650;48.106;-1.696;2023-02-08T01:48:38;39.30;;;18.77;;
22967;SDS011;11650;48.106;-1.696;2023-02-08T01:53:32;38.00;;;19.50;;
22967;SDS011;11650;48.106;-1.696;2023-02-08T01:56:00;34.73;;;19.60;;
22967;SDS011;11650;48.106;-1.696;2023-02-08T01:58:31;38.67;;;18.73;;
22967;SDS011;11650;48.106;-1.696;2023-02-08T02:01:00;37.03;;;18.83;;
22967;SDS011;11650;48.106;-1.696;2023-02-08T02:03:27;38.73;;;19.83;;
22967;SDS011;11650;48.106;-1.696;2023-02-08T02:05:54;36.33;;;18.37;;
22967;SDS011;11650;48.106;-1.696;2023-02-08T02:08:32;36.80;;;19.17;;
22967;SDS011;11650;48.106;-1.696;2023-02-08T02:10:57;41.60;;;19.37;;
22967;SDS011;11650;48.106;-1.696;2023-02-08T02:13:24;37.63;;;19.73;;
22967;SDS011;11650;48.106;-1.696;2023-02-08T02:15:51;37.57;;;18.83;;
22967;SDS011;11650;48.106;-1.696;2023-02-08T02:18:28;41.70;;;19.30;;
22967;SDS011;11650;48.106;-1.696;2023-02-08T02:26:28;38.80;;;19.57;;
22967;SDS011;11650;48.106;-1.696;2023-02-08T02:29:14;39.60;;;18.63;;
22967;SDS011;11650;48.106;-1.696;2023-02-08T02:32:07;38.27;;;20.70;;
22967;SDS011;11650;48.106;-1.696;2023-02-08T02:34:52;38.90;;;19.97;;
22967;SDS011;11650;48.106;-1.696;2023-02-08T02:40:20;35.77;;;19.03;;
22967;SDS011;11650;48.106;-1.696;2023-02-08T02:43:14;38.63;;;19.00;;
22967;SDS011;11650;48.106;-1.696;2023-02-08T02:46:23;38.57;;;19.20;;
22967;SDS011;11650;48.106;-1.696;2023-02-08T02:48:52;36.47;;;19.33;;
22967;SDS011;11650;48.106;-1.696;2023-02-08T02:54:07;36.43;;;18.83;;
22967;SDS011;11650;48.106;-1.696;2023-02-08T02:56:40;42.87;;;19.43;;
22967;SDS011;11650;48.106;-1.696;2023-02-08T02:59:10;36.73;;;19.50;;
22967;SDS011;11650;48.106;-1.696;2023-02-08T03:01:38;39.67;;;19.53;;
22967;SDS011;11650;48.106;-1.696;2023-02-08T03:12:38;40.67;;;19.77;;
22967;SDS011;11650;48.106;-1.696;2023-02-08T03:21:45;43.93;;;19.00;;
22967;SDS011;11650;48.106;-1.696;2023-02-08T03:32:07;40.40;;;19.17;;
22967;SDS011;11650;48.106;-1.696;2023-02-08T03:37:04;44.93;;;20.77;;
22967;SDS011;11650;48.106;-1.696;2023-02-08T03:39:35;42.77;;;19.87;;
22967;SDS011;11650;48.106;-1.696;2023-02-08T03:42:05;40.87;;;20.47;;
22967;SDS011;11650;48.106;-1.696;2023-02-08T03:44:42;42.53;;;20.10;;
22967;SDS011;11650;48.106;-1.696;2023-02-08T03:47:21;37.60;;;19.77;;
22967;SDS011;11650;48.106;-1.696;2023-02-08T03:49:50;38.10;;;18.70;;
22967;SDS011;11650;48.106;-1.696;2023-02-08T03:52:18;37.37;;;19.57;;
22967;SDS011;11650;48.106;-1.696;2023-02-08T03:54:55;39.30;;;19.73;;
22967;SDS011;11650;48.106;-1.696;2023-02-08T03:57:28;38.57;;;19.63;;
22967;SDS011;11650;48.106;-1.696;2023-02-08T04:00:03;39.10;;;19.93;;
22967;SDS011;11650;48.106;-1.696;2023-02-08T04:02:32;40.60;;;19.97;;
22967;SDS011;11650;48.106;-1.696;2023-02-08T04:05:02;38.17;;;19.80;;
22967;SDS011;11650;48.106;-1.696;2023-02-08T04:07:29;42.97;;;20.33;;
22967;SDS011;11650;48.106;-1.696;2023-02-08T04:09:55;37.60;;;19.33;;
22967;SDS011;11650;48.106;-1.696;2023-02-08T04:12:21;40.77;;;19.10;;
22967;SDS011;11650;48.106;-1.696;2023-02-08T04:14:47;40.40;;;19.50;;
22967;SDS011;11650;48.106;-1.696;2023-02-08T04:17:12;43.33;;;20.63;;
22967;SDS011;11650;48.106;-1.696;2023-02-08T04:19:38;39.07;;;19.23;;
22967;SDS011;11650;48.106;-1.696;2023-02-08T04:22:04;38.17;;;20.27;;
22967;SDS011;11650;48.106;-1.696;2023-02-08T04:24:30;38.70;;;19.37;;
22967;SDS011;11650;48.106;-1.696;2023-02-08T04:26:55;39.60;;;19.70;;
22967;SDS011;11650;48.106;-1.696;2023-02-08T04:29:21;37.37;;;18.27;;
22967;SDS011;11650;48.106;-1.696;2023-02-08T04:31:47;37.57;;;19.73;;
22967;SDS011;11650;48.106;-1.696;2023-02-08T04:34:12;38.87;;;19.10;;
22967;SDS011;11650;48.106;-1.696;2023-02-08T04:36:38;36.73;;;19.70;;
22967;SDS011;11650;48.106;-1.696;2023-02-08T04:39:04;36.17;;;19.90;;
22967;SDS011;11650;48.106;-1.696;2023-02-08T04:41:29;39.70;;;20.03;;
22967;SDS011;11650;48.106;-1.696;2023-02-08T04:43:55;38.80;;;20.07;;
22967;SDS011;11650;48.106;-1.696;2023-02-08T04:46:21;39.70;;;18.83;;
22967;SDS011;11650;48.106;-1.696;2023-02-08T04:48:46;40.83;;;20.30;;
22967;SDS011;11650;48.106;-1.696;2023-02-08T04:51:12;45.10;;;22.90;;
22967;SDS011;11650;48.106;-1.696;2023-02-08T04:53:37;55.50;;;28.13;;
22967;SDS011;11650;48.106;-1.696;2023-02-08T04:56:03;51.43;;;25.53;;
22967;SDS011;11650;48.106;-1.696;2023-02-08T04:58:29;44.23;;;23.23;;
22967;SDS011;11650;48.106;-1.696;2023-02-08T05:00:55;42.03;;;21.43;;
22967;SDS011;11650;48.106;-1.696;2023-02-08T05:03:20;43.47;;;21.27;;
22967;SDS011;11650;48.106;-1.696;2023-02-08T05:05:46;41.37;;;21.17;;
22967;SDS011;11650;48.106;-1.696;2023-02-08T05:08:20;38.83;;;19.50;;
22967;SDS011;11650;48.106;-1.696;2023-02-08T05:10:45;40.87;;;20.00;;
22967;SDS011;11650;48.106;-1.696;2023-02-08T05:13:11;38.13;;;19.37;;
22967;SDS011;11650;48.106;-1.696;2023-02-08T05:15:37;38.43;;;19.07;;
22967;SDS011;11650;48.106;-1.696;2023-02-08T05:18:03;30.27;;;17.63;;
22967;SDS011;11650;48.106;-1.696;2023-02-08T05:20:28;36.97;;;20.00;;
22967;SDS011;11650;48.106;-1.696;2023-02-08T05:22:54;39.90;;;19.90;;
22967;SDS011;11650;48.106;-1.696;2023-02-08T05:25:20;39.97;;;19.83;;
22967;SDS011;11650;48.106;-1.696;2023-02-08T05:27:46;37.60;;;19.30;;
22967;SDS011;11650;48.106;-1.696;2023-02-08T05:30:11;37.07;;;19.60;;
22967;SDS011;11650;48.106;-1.696;2023-02-08T05:32:37;41.63;;;20.47;;
22967;SDS011;11650;48.106;-1.696;2023-02-08T05:35:03;41.73;;;19.77;;
22967;SDS011;11650;48.106;-1.696;2023-02-08T05:37:29;39.73;;;20.27;;
22967;SDS011;11650;48.106;-1.696;2023-02-08T05:39:54;39.87;;;19.47;;
22967;SDS011;11650;48.106;-1.696;2023-02-08T05:42:20;39.00;;;19.10;;
22967;SDS011;11650;48.106;-1.696;2023-02-08T05:44:46;35.97;;;19.07;;
22967;SDS011;11650;48.106;-1.696;2023-02-08T05:47:11;39.03;;;19.23;;
22967;SDS011;11650;48.106;-1.696;2023-02-08T05:49:37;40.77;;;18.97;;
22967;SDS011;11650;48.106;-1.696;2023-02-08T05:52:03;40.03;;;19.57;;
22967;SDS011;11650;48.106;-1.696;2023-02-08T05:54:29;39.07;;;19.13;;
22967;SDS011;11650;48.106;-1.696;2023-02-08T05:56:54;42.77;;;20.70;;
22967;SDS011;11650;48.106;-1.696;2023-02-08T05:59:20;43.37;;;19.57;;
22967;SDS011;11650;48.106;-1.696;2023-02-08T06:01:46;40.70;;;19.00;;
22967;SDS011;11650;48.106;-1.696;2023-02-08T06:04:11;37.87;;;19.40;;
22967;SDS011;11650;48.106;-1.696;2023-02-08T06:06:37;36.97;;;18.83;;
22967;SDS011;11650;48.106;-1.696;2023-02-08T06:09:02;41.47;;;20.03;;
22967;SDS011;11650;48.106;-1.696;2023-02-08T06:11:28;41.00;;;19.60;;
22967;SDS011;11650;48.106;-1.696;2023-02-08T06:13:54;41.90;;;19.47;;
22967;SDS011;11650;48.106;-1.696;2023-02-08T06:16:20;43.63;;;20.00;;
22967;SDS011;11650;48.106;-1.696;2023-02-08T06:18:45;40.30;;;19.43;;
22967;SDS011;11650;48.106;-1.696;2023-02-08T06:21:11;43.90;;;19.47;;
22967;SDS011;11650;48.106;-1.696;2023-02-08T06:23:37;41.70;;;19.40;;
22967;SDS011;11650;48.106;-1.696;2023-02-08T06:26:02;40.67;;;19.23;;
22967;SDS011;11650;48.106;-1.696;2023-02-08T06:28:28;38.83;;;19.13;;
22967;SDS011;11650;48.106;-1.696;2023-02-08T06:30:53;42.50;;;20.83;;
22967;SDS011;11650;48.106;-1.696;2023-02-08T06:33:19;40.70;;;19.83;;
22967;SDS011;11650;48.106;-1.696;2023-02-08T06:35:45;39.57;;;19.80;;
22967;SDS011;11650;48.106;-1.696;2023-02-08T06:38:14;40.50;;;19.07;;
22967;SDS011;11650;48.106;-1.696;2023-02-08T06:40:40;40.77;;;20.60;;
22967;SDS011;11650;48.106;-1.696;2023-02-08T06:43:06;42.13;;;19.97;;
22967;SDS011;11650;48.106;-1.696;2023-02-08T06:45:31;41.30;;;19.97;;
22967;SDS011;11650;48.106;-1.696;2023-02-08T06:47:57;35.80;;;19.07;;
22967;SDS011;11650;48.106;-1.696;2023-02-08T06:50:23;39.40;;;19.50;;
22967;SDS011;11650;48.106;-1.696;2023-02-08T06:52:48;46.17;;;20.27;;
22967;SDS011;11650;48.106;-1.696;2023-02-08T06:55:14;38.27;;;19.47;;
22967;SDS011;11650;48.106;-1.696;2023-02-08T06:57:40;45.87;;;20.30;;
22967;SDS011;11650;48.106;-1.696;2023-02-08T07:00:06;37.57;;;19.87;;
22967;SDS011;11650;48.106;-1.696;2023-02-08T07:02:32;38.77;;;20.13;;
22967;SDS011;11650;48.106;-1.696;2023-02-08T07:04:57;38.13;;;19.83;;
22967;SDS011;11650;48.106;-1.696;2023-02-08T07:07:23;44.17;;;21.10;;
22967;SDS011;11650;48.106;-1.696;2023-02-08T07:09:49;40.83;;;19.93;;
22967;SDS011;11650;48.106;-1.696;2023-02-08T07:12:15;42.97;;;20.50;;
22967;SDS011;11650;48.106;-1.696;2023-02-08T07:14:41;40.87;;;20.23;;
22967;SDS011;11650;48.106;-1.696;2023-02-08T07:17:08;43.50;;;21.20;;
22967;SDS011;11650;48.106;-1.696;2023-02-08T07:19:35;41.63;;;20.13;;
22967;SDS011;11650;48.106;-1.696;2023-02-08T07:22:01;41.70;;;20.03;;
22967;SDS011;11650;48.106;-1.696;2023-02-08T07:24:36;42.03;;;20.83;;
22967;SDS011;11650;48.106;-1.696;2023-02-08T07:27:02;41.93;;;20.63;;
22967;SDS011;11650;48.106;-1.696;2023-02-08T07:29:30;46.83;;;19.90;;
22967;SDS011;11650;48.106;-1.696;2023-02-08T07:31:57;43.03;;;20.23;;
22967;SDS011;11650;48.106;-1.696;2023-02-08T07:34:23;40.83;;;20.30;;
22967;SDS011;11650;48.106;-1.696;2023-02-08T07:36:49;42.47;;;21.17;;
22967;SDS011;11650;48.106;-1.696;2023-02-08T07:39:15;41.97;;;20.13;;
22967;SDS011;11650;48.106;-1.696;2023-02-08T07:41:41;45.10;;;21.43;;
22967;SDS011;11650;48.106;-1.696;2023-02-08T07:44:06;46.90;;;20.53;;
22967;SDS011;11650;48.106;-1.696;2023-02-08T07:46:32;46.60;;;21.27;;
22967;SDS011;11650;48.106;-1.696;2023-02-08T07:48:58;39.33;;;19.77;;
22967;SDS011;11650;48.106;-1.696;2023-02-08T07:51:23;40.40;;;20.53;;
22967;SDS011;11650;48.106;-1.696;2023-02-08T07:53:50;42.37;;;20.53;;
22967;SDS011;11650;48.106;-1.696;2023-02-08T07:56:15;41.47;;;20.70;;
22967;SDS011;11650;48.106;-1.696;2023-02-08T07:58:41;42.30;;;20.63;;
22967;SDS011;11650;48.106;-1.696;2023-02-08T08:01:07;42.13;;;21.00;;
22967;SDS011;11650;48.106;-1.696;2023-02-08T08:03:33;42.33;;;21.43;;
22967;SDS011;11650;48.106;-1.696;2023-02-08T08:05:58;45.10;;;21.80;;
22967;SDS011;11650;48.106;-1.696;2023-02-08T08:08:24;37.93;;;20.30;;
22967;SDS011;11650;48.106;-1.696;2023-02-08T08:10:49;44.30;;;21.33;;
22967;SDS011;11650;48.106;-1.696;2023-02-08T08:13:15;43.50;;;21.03;;
22967;SDS011;11650;48.106;-1.696;2023-02-08T08:15:41;44.83;;;21.67;;
22967;SDS011;11650;48.106;-1.696;2023-02-08T08:18:07;41.80;;;21.73;;
22967;SDS011;11650;48.106;-1.696;2023-02-08T08:20:33;43.37;;;22.20;;
22967;SDS011;11650;48.106;-1.696;2023-02-08T08:22:59;42.53;;;21.60;;
22967;SDS011;11650;48.106;-1.696;2023-02-08T08:25:25;41.63;;;21.03;;
22967;SDS011;11650;48.106;-1.696;2023-02-08T08:27:51;42.40;;;21.20;;
22967;SDS011;11650;48.106;-1.696;2023-02-08T08:30:17;42.07;;;20.67;;
22967;SDS011;11650;48.106;-1.696;2023-02-08T08:32:43;43.43;;;21.33;;
22967;SDS011;11650;48.106;-1.696;2023-02-08T08:35:09;43.47;;;21.70;;
22967;SDS011;11650;48.106;-1.696;2023-02-08T08:37:35;43.63;;;20.57;;
22967;SDS011;11650;48.106;-1.696;2023-02-08T08:40:02;42.50;;;21.23;;
22967;SDS011;11650;48.106;-1.696;2023-02-08T08:42:28;46.53;;;21.33;;
22967;SDS011;11650;48.106;-1.696;2023-02-08T08:44:54;41.50;;;20.50;;
22967;SDS011;11650;48.106;-1.696;2023-02-08T08:47:20;42.60;;;20.83;;
22967;SDS011;11650;48.106;-1.696;2023-02-08T08:49:46;46.20;;;20.77;;
22967;SDS011;11650;48.106;-1.696;2023-02-08T08:52:11;45.83;;;21.53;;
22967;SDS011;11650;48.106;-1.696;2023-02-08T08:54:37;47.77;;;21.20;;
22967;SDS011;11650;48.106;-1.696;2023-02-08T08:57:03;38.97;;;21.80;;
22967;SDS011;11650;48.106;-1.696;2023-02-08T08:59:29;38.13;;;19.77;;
22967;SDS011;11650;48.106;-1.696;2023-02-08T09:01:55;37.27;;;20.43;;
22967;SDS011;11650;48.106;-1.696;2023-02-08T09:04:21;44.20;;;20.30;;
22967;SDS011;11650;48.106;-1.696;2023-02-08T09:06:47;44.20;;;20.00;;
22967;SDS011;11650;48.106;-1.696;2023-02-08T09:09:14;42.30;;;21.07;;
22967;SDS011;11650;48.106;-1.696;2023-02-08T09:11:40;40.13;;;20.20;;
22967;SDS011;11650;48.106;-1.696;2023-02-08T09:14:06;40.40;;;20.40;;
22967;SDS011;11650;48.106;-1.696;2023-02-08T09:16:32;40.30;;;20.30;;
22967;SDS011;11650;48.106;-1.696;2023-02-08T09:19:05;37.93;;;19.57;;
22967;SDS011;11650;48.106;-1.696;2023-02-08T09:21:32;39.60;;;20.17;;
22967;SDS011;11650;48.106;-1.696;2023-02-08T09:23:59;41.23;;;20.47;;
22967;SDS011;11650;48.106;-1.696;2023-02-08T09:26:26;44.43;;;20.43;;
22967;SDS011;11650;48.106;-1.696;2023-02-08T09:28:52;40.27;;;19.93;;
22967;SDS011;11650;48.106;-1.696;2023-02-08T09:33:46;39.90;;;20.93;;
22967;SDS011;11650;48.106;-1.696;2023-02-08T09:36:12;42.93;;;20.57;;
22967;SDS011;11650;48.106;-1.696;2023-02-08T09:38:39;46.57;;;21.37;;
22967;SDS011;11650;48.106;-1.696;2023-02-08T09:41:19;45.40;;;21.67;;
22967;SDS011;11650;48.106;-1.696;2023-02-08T09:46:29;42.67;;;21.60;;
22967;SDS011;11650;48.106;-1.696;2023-02-08T09:49:00;44.20;;;20.20;;
22967;SDS011;11650;48.106;-1.696;2023-02-08T09:54:02;50.87;;;21.67;;
22967;SDS011;11650;48.106;-1.696;2023-02-08T09:56:34;46.80;;;22.00;;
22967;SDS011;11650;48.106;-1.696;2023-02-08T09:59:04;44.00;;;22.40;;
22967;SDS011;11650;48.106;-1.696;2023-02-08T10:01:31;43.60;;;22.37;;
22967;SDS011;11650;48.106;-1.696;2023-02-08T10:04:23;44.47;;;21.23;;
22967;SDS011;11650;48.106;-1.696;2023-02-08T10:06:48;46.33;;;21.27;;
22967;SDS011;11650;48.106;-1.696;2023-02-08T10:09:13;43.63;;;21.70;;
22967;SDS011;11650;48.106;-1.696;2023-02-08T10:11:52;39.20;;;21.63;;
22967;SDS011;11650;48.106;-1.696;2023-02-08T10:14:36;45.50;;;22.43;;
22967;SDS011;11650;48.106;-1.696;2023-02-08T10:22:44;47.10;;;22.17;;
22967;SDS011;11650;48.106;-1.696;2023-02-08T10:25:28;41.90;;;21.50;;
22967;SDS011;11650;48.106;-1.696;2023-02-08T10:28:03;43.43;;;21.50;;
22967;SDS011;11650;48.106;-1.696;2023-02-08T10:31:00;45.50;;;20.70;;
22967;SDS011;11650;48.106;-1.696;2023-02-08T10:34:01;41.00;;;21.10;;
22967;SDS011;11650;48.106;-1.696;2023-02-08T10:36:34;40.90;;;19.97;;
22967;SDS011;11650;48.106;-1.696;2023-02-08T10:39:09;40.67;;;19.77;;
22967;SDS011;11650;48.106;-1.696;2023-02-08T10:41:41;40.13;;;19.97;;
22967;SDS011;11650;48.106;-1.696;2023-02-08T10:44:14;37.87;;;20.60;;
22967;SDS011;11650;48.106;-1.696;2023-02-08T10:46:49;36.90;;;19.17;;
22967;SDS011;11650;48.106;-1.696;2023-02-08T10:49:39;37.63;;;19.27;;
22967;SDS011;11650;48.106;-1.696;2023-02-08T10:52:15;35.43;;;15.93;;
22967;SDS011;11650;48.106;-1.696;2023-02-08T10:54:40;29.77;;;15.40;;
22967;SDS011;11650;48.106;-1.696;2023-02-08T10:57:10;32.13;;;15.53;;
22967;SDS011;11650;48.106;-1.696;2023-02-08T10:59:48;28.43;;;15.80;;
22967;SDS011;11650;48.106;-1.696;2023-02-08T11:07:25;32.97;;;16.27;;
22967;SDS011;11650;48.106;-1.696;2023-02-08T11:09:50;27.07;;;15.33;;
22967;SDS011;11650;48.106;-1.696;2023-02-08T11:12:19;30.37;;;15.90;;
22967;SDS011;11650;48.106;-1.696;2023-02-08T11:14:47;30.67;;;16.13;;
22967;SDS011;11650;48.106;-1.696;2023-02-08T11:17:25;28.77;;;15.37;;
22967;SDS011;11650;48.106;-1.696;2023-02-08T11:19:54;28.60;;;14.93;;
22967;SDS011;11650;48.106;-1.696;2023-02-08T11:22:21;26.63;;;15.07;;
22967;SDS011;11650;48.106;-1.696;2023-02-08T11:24:58;27.83;;;13.93;;
22967;SDS011;11650;48.106;-1.696;2023-02-08T11:27:30;26.73;;;13.87;;
22967;SDS011;11650;48.106;-1.696;2023-02-08T11:30:18;24.87;;;14.80;;
22967;SDS011;11650;48.106;-1.696;2023-02-08T11:32:47;27.57;;;14.40;;
22967;SDS011;11650;48.106;-1.696;2023-02-08T11:37:52;24.43;;;14.63;;
22967;SDS011;11650;48.106;-1.696;2023-02-08T11:40:22;30.03;;;15.33;;
22967;SDS011;11650;48.106;-1.696;2023-02-08T11:42:52;28.20;;;15.70;;
22967;SDS011;11650;48.106;-1.696;2023-02-08T11:45:26;27.77;;;15.17;;
22967;SDS011;11650;48.106;-1.696;2023-02-08T11:47:55;28.27;;;15.13;;
22967;SDS011;11650;48.106;-1.696;2023-02-08T11:50:31;28.63;;;15.23;;
22967;SDS011;11650;48.106;-1.696;2023-02-08T11:53:01;28.10;;;15.50;;
22967;SDS011;11650;48.106;-1.696;2023-02-08T11:55:29;26.90;;;14.90;;
22967;SDS011;11650;48.106;-1.696;2023-02-08T11:58:03;29.00;;;15.47;;
22967;SDS011;11650;48.106;-1.696;2023-02-08T12:00:33;32.60;;;16.37;;
22967;SDS011;11650;48.106;-1.696;2023-02-08T12:03:02;29.63;;;15.50;;
22967;SDS011;11650;48.106;-1.696;2023-02-08T12:08:25;29.57;;;15.57;;
22967;SDS011;11650;48.106;-1.696;2023-02-08T12:16:17;27.50;;;15.50;;
22967;SDS011;11650;48.106;-1.696;2023-02-08T12:18:57;32.00;;;16.63;;
22967;SDS011;11650;48.106;-1.696;2023-02-08T12:35:51;27.67;;;15.80;;
22967;SDS011;11650;48.106;-1.696;2023-02-08T12:44:22;26.13;;;15.57;;
22967;SDS011;11650;48.106;-1.696;2023-02-08T12:52:41;27.13;;;14.30;;
22967;SDS011;11650;48.106;-1.696;2023-02-08T12:55:38;26.47;;;14.23;;
22967;SDS011;11650;48.106;-1.696;2023-02-08T12:58:17;25.87;;;15.47;;
22967;SDS011;11650;48.106;-1.696;2023-02-08T13:00:52;25.57;;;14.97;;
22967;SDS011;11650;48.106;-1.696;2023-02-08T13:06:15;24.27;;;14.80;;
22967;SDS011;11650;48.106;-1.696;2023-02-08T13:08:46;25.53;;;15.57;;
22967;SDS011;11650;48.106;-1.696;2023-02-08T13:11:33;23.90;;;14.87;;
22967;SDS011;11650;48.106;-1.696;2023-02-08T13:14:09;25.97;;;15.47;;
22967;SDS011;11650;48.106;-1.696;2023-02-08T13:16:49;27.70;;;15.23;;
22967;SDS011;11650;48.106;-1.696;2023-02-08T13:19:23;27.40;;;15.37;;
22967;SDS011;11650;48.106;-1.696;2023-02-08T13:21:56;23.43;;;15.63;;
22967;SDS011;11650;48.106;-1.696;2023-02-08T13:27:03;26.03;;;15.60;;
22967;SDS011;11650;48.106;-1.696;2023-02-08T13:29:33;25.63;;;15.13;;
22967;SDS011;11650;48.106;-1.696;2023-02-08T13:32:04;21.53;;;14.43;;
22967;SDS011;11650;48.106;-1.696;2023-02-08T13:37:18;20.97;;;13.13;;
22967;SDS011;11650;48.106;-1.696;2023-02-08T13:39:48;18.43;;;12.23;;
22967;SDS011;11650;48.106;-1.696;2023-02-08T13:45:21;19.60;;;12.83;;
22967;SDS011;11650;48.106;-1.696;2023-02-08T13:48:00;26.27;;;11.80;;
22967;SDS011;11650;48.106;-1.696;2023-02-08T13:52:59;18.13;;;11.40;;
22967;SDS011;11650;48.106;-1.696;2023-02-08T14:08:07;20.77;;;12.00;;
22967;SDS011;11650;48.106;-1.696;2023-02-08T14:13:38;23.47;;;12.70;;
22967;SDS011;11650;48.106;-1.696;2023-02-08T14:16:34;35.40;;;22.13;;
22967;SDS011;11650;48.106;-1.696;2023-02-08T14:21:46;18.73;;;12.30;;
22967;SDS011;11650;48.106;-1.696;2023-02-08T14:24:33;20.63;;;12.70;;
22967;SDS011;11650;48.106;-1.696;2023-02-08T14:27:26;17.57;;;12.50;;
22967;SDS011;11650;48.106;-1.696;2023-02-08T14:32:31;17.50;;;12.40;;
22967;SDS011;11650;48.106;-1.696;2023-02-08T14:35:01;18.97;;;12.33;;
22967;SDS011;11650;48.106;-1.696;2023-02-08T14:37:33;21.67;;;12.57;;
22967;SDS011;11650;48.106;-1.696;2023-02-08T14:45:44;22.60;;;12.57;;
22967;SDS011;11650;48.106;-1.696;2023-02-08T14:59:05;19.77;;;12.60;;
22967;SDS011;11650;48.106;-1.696;2023-02-08T15:04:11;19.00;;;11.63;;
22967;SDS011;11650;48.106;-1.696;2023-02-08T15:09:20;18.07;;;11.77;;
22967;SDS011;11650;48.106;-1.696;2023-02-08T15:11:56;16.43;;;11.60;;
22967;SDS011;11650;48.106;-1.696;2023-02-08T15:14:25;17.53;;;11.00;;
22967;SDS011;11650;48.106;-1.696;2023-02-08T15:16:52;18.00;;;11.07;;
22967;SDS011;11650;48.106;-1.696;2023-02-08T15:19:26;18.63;;;12.10;;
22967;SDS011;11650;48.106;-1.696;2023-02-08T15:22:14;18.00;;;11.43;;
22967;SDS011;11650;48.106;-1.696;2023-02-08T15:24:54;16.43;;;10.97;;
22967;SDS011;11650;48.106;-1.696;2023-02-08T15:27:24;17.67;;;10.90;;
22967;SDS011;11650;48.106;-1.696;2023-02-08T15:29:54;15.90;;;11.07;;
22967;SDS011;11650;48.106;-1.696;2023-02-08T15:32:21;16.93;;;11.23;;
22967;SDS011;11650;48.106;-1.696;2023-02-08T15:34:53;16.67;;;11.37;;
22967;SDS011;11650;48.106;-1.696;2023-02-08T15:37:24;19.10;;;11.30;;
22967;SDS011;11650;48.106;-1.696;2023-02-08T15:39:52;16.80;;;10.70;;
22967;SDS011;11650;48.106;-1.696;2023-02-08T15:42:21;18.33;;;11.43;;
22967;SDS011;11650;48.106;-1.696;2023-02-08T15:44:48;18.20;;;11.20;;
22967;SDS011;11650;48.106;-1.696;2023-02-08T15:47:27;15.47;;;10.50;;
22967;SDS011;11650;48.106;-1.696;2023-02-08T15:49:58;19.10;;;11.20;;
22967;SDS011;11650;48.106;-1.696;2023-02-08T15:52:29;14.77;;;10.20;;
22967;SDS011;11650;48.106;-1.696;2023-02-08T15:54:57;16.97;;;10.57;;
22967;SDS011;11650;48.106;-1.696;2023-02-08T16:00:00;18.63;;;10.30;;
22967;SDS011;11650;48.106;-1.696;2023-02-08T16:02:32;17.80;;;10.47;;
22967;SDS011;11650;48.106;-1.696;2023-02-08T16:04:59;17.77;;;10.77;;
22967;SDS011;11650;48.106;-1.696;2023-02-08T16:09:57;17.97;;;10.17;;
22967;SDS011;11650;48.106;-1.696;2023-02-08T16:12:24;16.87;;;10.43;;
22967;SDS011;11650;48.106;-1.696;2023-02-08T16:14:51;19.07;;;9.63;;
22967;SDS011;11650;48.106;-1.696;2023-02-08T16:17:53;15.77;;;9.53;;
22967;SDS011;11650;48.106;-1.696;2023-02-08T16:22:55;15.80;;;9.87;;
22967;SDS011;11650;48.106;-1.696;2023-02-08T16:28:15;14.07;;;8.43;;
22967;SDS011;11650;48.106;-1.696;2023-02-08T16:30:54;12.93;;;8.83;;
22967;SDS011;11650;48.106;-1.696;2023-02-08T16:33:23;17.47;;;9.77;;
22967;SDS011;11650;48.106;-1.696;2023-02-08T16:35:49;15.77;;;9.93;;
22967;SDS011;11650;48.106;-1.696;2023-02-08T16:38:19;15.70;;;9.87;;
22967;SDS011;11650;48.106;-1.696;2023-02-08T16:40:50;15.73;;;9.97;;
22967;SDS011;11650;48.106;-1.696;2023-02-08T16:43:19;17.63;;;9.80;;
22967;SDS011;11650;48.106;-1.696;2023-02-08T16:45:45;22.00;;;10.90;;
22967;SDS011;11650;48.106;-1.696;2023-02-08T16:48:32;20.13;;;10.57;;
22967;SDS011;11650;48.106;-1.696;2023-02-08T16:51:00;19.60;;;10.43;;
22967;SDS011;11650;48.106;-1.696;2023-02-08T16:53:38;18.43;;;10.27;;
22967;SDS011;11650;48.106;-1.696;2023-02-08T16:56:09;18.53;;;10.40;;
22967;SDS011;11650;48.106;-1.696;2023-02-08T16:58:35;17.30;;;10.20;;
22967;SDS011;11650;48.106;-1.696;2023-02-08T17:01:01;20.37;;;10.53;;
22967;SDS011;11650;48.106;-1.696;2023-02-08T17:03:27;19.93;;;10.70;;